Time;durP1;ratioP1;P1;durP2;ratioP2;P2;SDS_P1;SDS_P2;PMS_P1;PMS_P2;Temp;Humidity;BMP_temperature;BMP_pressure;BME280_temperature;BME280_humidity;BME280_pressure;Samples;Min_cycle;Max_cycle;Signal;HPM_P1;HPM_P2
2022/03/23 00:00:19;;;;;;;6.15;5.55;;;;;;;;;;5069038;28;20028;-60
2022/03/23 00:02:45;;;;;;;5.25;4.75;;;;;;;;;;5070986;28;20595;-59
2022/03/23 00:05:10;;;;;;;4.95;4.55;;;;;;;;;;5072510;28;20032;-59
2022/03/23 00:07:36;;;;;;;5.38;4.90;;;;;;;;;;5072518;28;20070;-54
2022/03/23 00:10:03;;;;;;;4.90;4.50;;;;;;;;;;5069173;28;20037;-59
2022/03/23 00:12:28;;;;;;;4.75;4.35;;;;;;;;;;5073073;28;20056;-52
2022/03/23 00:14:54;;;;;;;7.43;6.60;;;;;;;;;;5068292;28;20086;-52
2022/03/23 00:17:19;;;;;;;5.32;4.85;;;;;;;;;;5069800;28;20043;-54
2022/03/23 00:19:45;;;;;;;5.25;4.85;;;;;;;;;;5068117;28;20089;-54
2022/03/23 00:22:11;;;;;;;4.57;4.18;;;;;;;;;;5070160;28;20123;-58
2022/03/23 00:24:36;;;;;;;6.60;4.85;;;;;;;;;;5069920;28;20032;-54
2022/03/23 00:27:02;;;;;;;4.70;4.30;;;;;;;;;;5069035;28;20374;-60
2022/03/23 00:29:28;;;;;;;4.55;4.15;;;;;;;;;;5071198;28;20456;-54
2022/03/23 00:31:53;;;;;;;8.75;4.90;;;;;;;;;;5067336;28;20032;-58
2022/03/23 00:34:19;;;;;;;5.68;4.88;;;;;;;;;;5067166;28;20036;-59
2022/03/23 00:36:44;;;;;;;4.93;4.53;;;;;;;;;;5073142;28;20044;-55
2022/03/23 00:39:10;;;;;;;4.80;4.30;;;;;;;;;;5071902;28;20624;-60
2022/03/23 00:41:35;;;;;;;5.25;4.75;;;;;;;;;;5072955;28;20051;-59
2022/03/23 00:44:00;;;;;;;4.75;4.35;;;;;;;;;;5070868;28;20060;-59
2022/03/23 00:46:26;;;;;;;5.55;4.88;;;;;;;;;;5071356;28;20067;-60
2022/03/23 00:48:53;;;;;;;10.05;5.00;;;;;;;;;;5066257;28;21268;-60
2022/03/23 00:51:18;;;;;;;5.72;5.13;;;;;;;;;;5073727;28;20048;-59
2022/03/23 00:53:44;;;;;;;7.65;5.35;;;;;;;;;;5068666;28;20498;-54
2022/03/23 00:56:10;;;;;;;4.95;4.50;;;;;;;;;;5073379;28;20030;-56
2022/03/23 00:58:36;;;;;;;4.78;4.38;;;;;;;;;;5067587;28;20116;-53
2022/03/23 01:01:01;;;;;;;4.55;3.92;;;;;;;;;;5066951;28;20032;-54
2022/03/23 01:03:27;;;;;;;5.32;4.18;;;;;;;;;;5068083;28;20036;-53
2022/03/23 01:05:52;;;;;;;5.93;4.72;;;;;;;;;;5067124;28;20029;-55
2022/03/23 01:08:18;;;;;;;4.45;4.05;;;;;;;;;;5052146;28;20036;-55
2022/03/23 01:10:44;;;;;;;4.07;3.67;;;;;;;;;;5067470;28;20024;-54
2022/03/23 01:13:10;;;;;;;4.55;4.15;;;;;;;;;;5064655;28;20032;-54
2022/03/23 01:15:35;;;;;;;5.90;4.25;;;;;;;;;;5065313;28;20679;-55
2022/03/23 01:18:01;;;;;;;5.50;4.88;;;;;;;;;;5069823;28;20032;-55
2022/03/23 01:20:27;;;;;;;4.28;3.88;;;;;;;;;;5064170;28;20115;-54
2022/03/23 01:22:52;;;;;;;4.95;4.50;;;;;;;;;;5066588;28;20047;-54
2022/03/23 01:25:18;;;;;;;5.28;4.88;;;;;;;;;;5067062;28;20342;-55
2022/03/23 01:27:44;;;;;;;4.65;4.25;;;;;;;;;;5065493;28;20578;-52
2022/03/23 01:30:12;;;;;;;6.13;4.82;;;;;;;;;;5064850;28;20040;-55
2022/03/23 01:32:39;;;;;;;4.93;4.20;;;;;;;;;;5068125;28;20032;-54
2022/03/23 01:35:07;;;;;;;5.57;5.07;;;;;;;;;;5069204;28;20145;-59
2022/03/23 01:37:33;;;;;;;5.45;4.95;;;;;;;;;;5064763;28;20032;-59
2022/03/23 01:39:58;;;;;;;5.20;4.78;;;;;;;;;;5062316;28;20668;-59
2022/03/23 01:42:26;;;;;;;5.38;4.90;;;;;;;;;;5065776;28;20032;-59
2022/03/23 01:44:52;;;;;;;4.63;4.22;;;;;;;;;;5067593;28;20398;-59
2022/03/23 01:47:18;;;;;;;5.18;4.60;;;;;;;;;;5063911;28;20039;-59
2022/03/23 01:49:46;;;;;;;5.68;5.10;;;;;;;;;;5063599;28;20626;-59
2022/03/23 01:52:14;;;;;;;4.82;4.43;;;;;;;;;;5066218;28;20221;-59
2022/03/23 01:54:40;;;;;;;4.50;4.10;;;;;;;;;;5081447;28;20028;-59
2022/03/23 01:57:09;;;;;;;5.47;4.97;;;;;;;;;;5067719;28;20020;-59
2022/03/23 01:59:35;;;;;;;6.10;5.10;;;;;;;;;;5066483;28;20123;-59
2022/03/23 02:02:02;;;;;;;5.68;5.18;;;;;;;;;;5066746;28;20032;-60
2022/03/23 02:04:27;;;;;;;4.82;4.43;;;;;;;;;;5065539;28;20869;-60
2022/03/23 02:06:53;;;;;;;5.20;4.70;;;;;;;;;;5063645;28;20040;-59
2022/03/23 02:09:19;;;;;;;7.13;5.45;;;;;;;;;;5063604;28;20454;-60
2022/03/23 02:11:46;;;;;;;5.50;4.72;;;;;;;;;;5064814;28;20043;-60
2022/03/23 02:14:12;;;;;;;5.65;5.15;;;;;;;;;;5062438;28;20062;-60
2022/03/23 02:16:42;;;;;;;5.70;5.20;;;;;;;;;;5064055;28;20166;-60
2022/03/23 02:19:07;;;;;;;5.47;4.80;;;;;;;;;;5065618;28;20913;-54
2022/03/23 02:21:34;;;;;;;10.70;6.20;;;;;;;;;;5065926;28;20036;-53
2022/03/23 02:23:59;;;;;;;5.07;4.55;;;;;;;;;;5062605;28;20851;-54
2022/03/23 02:26:26;;;;;;;4.72;4.32;;;;;;;;;;5068828;28;20047;-52
2022/03/23 02:28:53;;;;;;;5.28;4.78;;;;;;;;;;5065680;28;21858;-55
2022/03/23 02:31:19;;;;;;;8.15;5.45;;;;;;;;;;5063648;28;20161;-49
2022/03/23 02:33:44;;;;;;;5.03;4.60;;;;;;;;;;5068029;28;20051;-53
2022/03/23 02:36:10;;;;;;;5.18;4.72;;;;;;;;;;5062317;28;20040;-53
2022/03/23 02:38:35;;;;;;;4.38;4.00;;;;;;;;;;5067152;28;20080;-53
2022/03/23 02:41:01;;;;;;;6.72;5.53;;;;;;;;;;5065314;28;20043;-54
2022/03/23 02:43:26;;;;;;;5.15;4.65;;;;;;;;;;5063090;28;20032;-55
2022/03/23 02:45:52;;;;;;;4.72;4.32;;;;;;;;;;5061593;28;20115;-52
2022/03/23 02:48:17;;;;;;;5.28;4.78;;;;;;;;;;5065975;28;20082;-55
2022/03/23 02:50:43;;;;;;;5.05;4.65;;;;;;;;;;5063543;28;20157;-54
2022/03/23 03:01:53;;;;;;;4.97;4.57;;;;;;;;;;5059381;28;20032;-54
2022/03/23 03:04:23;;;;;;;4.57;4.18;;;;;;;;;;5059094;28;20731;-53
2022/03/23 03:06:50;;;;;;;4.47;4.07;;;;;;;;;;5062080;28;20059;-51
2022/03/23 03:09:15;;;;;;;5.32;4.18;;;;;;;;;;5065386;28;20117;-56
2022/03/23 03:11:45;;;;;;;4.38;3.97;;;;;;;;;;5066669;28;20029;-53
2022/03/23 03:14:11;;;;;;;6.55;5.10;;;;;;;;;;5067116;28;20121;-55
2022/03/23 03:16:37;;;;;;;4.15;3.75;;;;;;;;;;5065256;28;20041;-54
2022/03/23 03:19:09;;;;;;;5.28;4.78;;;;;;;;;;5066432;28;20055;-55
2022/03/23 03:21:34;;;;;;;4.10;3.70;;;;;;;;;;5057913;28;20047;-53
2022/03/23 03:24:01;;;;;;;5.05;4.05;;;;;;;;;;5066451;28;20032;-55
2022/03/23 03:26:27;;;;;;;4.50;4.10;;;;;;;;;;5068373;28;20028;-56
2022/03/23 03:28:52;;;;;;;4.20;3.80;;;;;;;;;;5070265;28;20035;-54
2022/03/23 03:31:18;;;;;;;3.67;3.38;;;;;;;;;;5071770;28;20457;-56
2022/03/23 03:33:44;;;;;;;6.82;4.25;;;;;;;;;;5075275;28;20588;-55
2022/03/23 03:36:10;;;;;;;4.72;4.28;;;;;;;;;;5076351;28;20037;-56
2022/03/23 03:38:37;;;;;;;4.40;4.00;;;;;;;;;;5072847;28;20115;-55
2022/03/23 03:41:04;;;;;;;5.15;4.75;;;;;;;;;;5079858;28;20036;-56
2022/03/23 03:43:31;;;;;;;4.40;4.00;;;;;;;;;;5076605;28;20032;-51
2022/03/23 03:45:58;;;;;;;5.75;5.22;;;;;;;;;;5077033;28;20064;-52
2022/03/23 03:48:24;;;;;;;5.90;5.30;;;;;;;;;;5075769;28;20025;-52
2022/03/23 03:50:50;;;;;;;4.90;4.50;;;;;;;;;;5069721;28;20068;-55
2022/03/23 03:53:15;;;;;;;4.72;4.32;;;;;;;;;;5068438;28;20086;-52
2022/03/23 03:55:41;;;;;;;4.80;4.35;;;;;;;;;;5066497;28;20028;-55
2022/03/23 03:58:08;;;;;;;5.32;4.78;;;;;;;;;;5068871;28;20032;-53
2022/03/23 04:00:34;;;;;;;5.43;4.88;;;;;;;;;;5068551;28;20036;-51
2022/03/23 04:03:00;;;;;;;4.53;4.13;;;;;;;;;;5068676;28;20038;-57
2022/03/23 04:05:28;;;;;;;4.82;4.22;;;;;;;;;;5066094;28;20477;-54
2022/03/23 04:07:54;;;;;;;4.95;4.45;;;;;;;;;;5064582;28;20036;-55
2022/03/23 04:10:19;;;;;;;5.40;4.90;;;;;;;;;;5067161;28;20063;-56
2022/03/23 04:12:45;;;;;;;5.22;4.72;;;;;;;;;;5069670;28;20068;-56
2022/03/23 04:15:10;;;;;;;5.13;4.63;;;;;;;;;;5065860;28;20485;-57
2022/03/23 04:17:36;;;;;;;4.45;4.05;;;;;;;;;;5068315;28;20072;-54
2022/03/23 04:20:02;;;;;;;5.35;4.85;;;;;;;;;;5068388;28;20039;-52
2022/03/23 04:22:28;;;;;;;4.75;4.35;;;;;;;;;;5066206;28;20028;-51
2022/03/23 04:24:53;;;;;;;5.07;4.57;;;;;;;;;;5068491;28;20068;-55
2022/03/23 04:27:19;;;;;;;4.00;3.65;;;;;;;;;;5071240;28;20063;-54
2022/03/23 04:29:44;;;;;;;7.65;5.20;;;;;;;;;;5065527;28;20042;-55
2022/03/23 04:32:10;;;;;;;6.80;4.82;;;;;;;;;;5068114;28;20113;-54
2022/03/23 04:34:35;;;;;;;4.72;4.32;;;;;;;;;;5068610;28;20060;-54
2022/03/23 04:37:01;;;;;;;4.82;4.43;;;;;;;;;;5066594;28;20476;-53
2022/03/23 04:39:26;;;;;;;4.25;3.85;;;;;;;;;;5066399;28;20063;-53
2022/03/23 04:41:52;;;;;;;4.95;4.55;;;;;;;;;;5065689;28;20032;-54
2022/03/23 04:44:18;;;;;;;5.78;5.28;;;;;;;;;;5070518;28;20033;-57
2022/03/23 04:46:43;;;;;;;5.65;5.15;;;;;;;;;;5066917;28;20131;-56
2022/03/23 04:49:10;;;;;;;4.25;3.85;;;;;;;;;;5069289;28;20113;-53
2022/03/23 04:51:36;;;;;;;4.68;4.28;;;;;;;;;;5071189;28;20081;-52
2022/03/23 04:54:02;;;;;;;5.40;4.93;;;;;;;;;;5069650;28;20051;-54
2022/03/23 04:56:31;;;;;;;6.22;5.30;;;;;;;;;;5069327;28;20054;-55
2022/03/23 04:58:57;;;;;;;5.07;4.57;;;;;;;;;;5068119;28;20032;-54
2022/03/23 05:01:22;;;;;;;4.70;4.30;;;;;;;;;;5068242;28;20480;-55
2022/03/23 05:03:49;;;;;;;5.82;5.22;;;;;;;;;;5067545;28;20111;-55
2022/03/23 05:06:14;;;;;;;6.38;5.43;;;;;;;;;;5065820;28;20449;-54
2022/03/23 05:08:40;;;;;;;8.57;5.57;;;;;;;;;;5071776;28;20038;-56
2022/03/23 05:11:06;;;;;;;6.00;5.50;;;;;;;;;;5068661;28;20675;-54
2022/03/23 05:13:33;;;;;;;6.45;5.47;;;;;;;;;;5072888;28;20051;-54
2022/03/23 05:15:59;;;;;;;4.80;4.40;;;;;;;;;;5066594;28;20592;-54
2022/03/23 05:18:24;;;;;;;5.53;5.03;;;;;;;;;;5067750;28;20116;-56
2022/03/23 05:20:49;;;;;;;5.35;4.90;;;;;;;;;;5070394;28;20044;-55
2022/03/23 05:23:15;;;;;;;4.40;4.00;;;;;;;;;;5071155;28;20037;-56
2022/03/23 05:25:40;;;;;;;5.97;5.38;;;;;;;;;;5070047;28;20036;-54
2022/03/23 05:28:08;;;;;;;5.50;5.03;;;;;;;;;;5068163;28;20032;-54
2022/03/23 05:30:34;;;;;;;5.40;4.93;;;;;;;;;;5065668;28;20454;-54
2022/03/23 05:32:59;;;;;;;4.45;4.05;;;;;;;;;;5068066;28;20033;-54
2022/03/23 05:35:25;;;;;;;4.85;4.45;;;;;;;;;;5067176;28;20044;-55
2022/03/23 05:37:50;;;;;;;5.05;4.55;;;;;;;;;;5064942;28;20032;-54
2022/03/23 05:40:16;;;;;;;4.50;4.13;;;;;;;;;;5067283;28;20047;-55
2022/03/23 05:42:41;;;;;;;4.78;4.38;;;;;;;;;;5069004;28;20051;-56
2022/03/23 05:45:07;;;;;;;6.32;4.10;;;;;;;;;;5061736;28;20056;-54
2022/03/23 05:47:34;;;;;;;7.97;5.63;;;;;;;;;;5067677;28;20039;-55
2022/03/23 05:49:59;;;;;;;6.93;5.07;;;;;;;;;;5067053;28;20056;-53
2022/03/23 05:52:25;;;;;;;5.13;4.70;;;;;;;;;;5067261;28;20624;-54
2022/03/23 05:54:51;;;;;;;4.88;4.47;;;;;;;;;;5067688;28;20051;-59
2022/03/23 05:57:17;;;;;;;5.60;4.88;;;;;;;;;;5066372;28;20036;-59
2022/03/23 05:59:42;;;;;;;4.88;4.47;;;;;;;;;;5055478;28;20109;-61
2022/03/23 06:02:08;;;;;;;5.00;4.60;;;;;;;;;;5066825;28;20461;-60
2022/03/23 06:04:33;;;;;;;7.18;5.82;;;;;;;;;;5065482;28;20166;-60
2022/03/23 06:06:58;;;;;;;4.55;4.15;;;;;;;;;;5066361;28;20407;-59
2022/03/23 06:09:24;;;;;;;5.40;4.90;;;;;;;;;;5070243;28;20028;-59
2022/03/23 06:11:49;;;;;;;4.95;4.47;;;;;;;;;;5070549;28;20044;-55
2022/03/23 06:14:14;;;;;;;5.32;4.80;;;;;;;;;;5070220;28;20044;-60
2022/03/23 06:16:40;;;;;;;5.10;4.63;;;;;;;;;;5071228;28;20038;-52
2022/03/23 06:19:05;;;;;;;4.88;4.45;;;;;;;;;;5078683;28;20059;-53
2022/03/23 06:21:31;;;;;;;5.00;4.50;;;;;;;;;;5075976;28;20123;-59
2022/03/23 06:23:56;;;;;;;5.35;4.85;;;;;;;;;;5072442;28;20107;-59
2022/03/23 06:26:22;;;;;;;10.60;6.22;;;;;;;;;;5071516;28;20081;-58
2022/03/23 06:28:47;;;;;;;5.15;4.65;;;;;;;;;;5073989;28;20032;-54
2022/03/23 06:31:12;;;;;;;6.57;4.32;;;;;;;;;;5069641;28;20043;-52
2022/03/23 06:33:38;;;;;;;4.90;4.50;;;;;;;;;;5073352;28;20028;-59
2022/03/23 06:36:03;;;;;;;5.88;5.38;;;;;;;;;;5073269;28;20094;-53
2022/03/23 06:38:30;;;;;;;5.20;4.70;;;;;;;;;;5073584;28;20070;-56
2022/03/23 06:40:55;;;;;;;5.18;4.65;;;;;;;;;;5069853;28;20050;-52
2022/03/23 06:43:21;;;;;;;5.15;4.47;;;;;;;;;;5075543;28;20028;-56
2022/03/23 06:45:46;;;;;;;5.70;5.15;;;;;;;;;;5069525;28;20059;-54
2022/03/23 06:48:12;;;;;;;5.07;4.68;;;;;;;;;;5073381;28;20032;-53
2022/03/23 06:50:37;;;;;;;5.90;5.40;;;;;;;;;;5073325;28;20060;-55
2022/03/23 06:53:03;;;;;;;6.50;5.90;;;;;;;;;;5076347;28;20219;-59
2022/03/23 06:55:28;;;;;;;5.57;5.07;;;;;;;;;;5073518;28;20771;-51
2022/03/23 06:57:54;;;;;;;5.45;5.00;;;;;;;;;;5072115;28;20070;-53
2022/03/23 07:00:20;;;;;;;6.88;5.43;;;;;;;;;;5073323;28;20040;-61
2022/03/23 07:02:48;;;;;;;5.30;4.90;;;;;;;;;;5072234;28;20067;-57
2022/03/23 07:05:15;;;;;;;5.03;4.63;;;;;;;;;;5069742;28;20358;-55
2022/03/23 07:10:26;;;;;;;7.72;6.93;;;;;;;;;;5068419;28;20119;-56
2022/03/23 07:12:51;;;;;;;6.85;5.18;;;;;;;;;;5072148;28;20134;-53
2022/03/23 07:15:17;;;;;;;5.65;5.10;;;;;;;;;;5072628;28;20103;-60
2022/03/23 07:17:42;;;;;;;6.15;5.55;;;;;;;;;;5070262;28;20024;-59
2022/03/23 07:20:08;;;;;;;7.68;5.13;;;;;;;;;;5068878;28;20453;-59
2022/03/23 07:22:34;;;;;;;5.70;5.20;;;;;;;;;;5073382;28;20060;-59
2022/03/23 07:25:00;;;;;;;6.10;5.43;;;;;;;;;;5067819;28;20064;-59
2022/03/23 07:27:25;;;;;;;6.72;6.13;;;;;;;;;;5069159;28;20128;-59
2022/03/23 07:29:51;;;;;;;6.03;5.43;;;;;;;;;;5071983;28;20117;-59
2022/03/23 07:32:17;;;;;;;5.28;4.88;;;;;;;;;;5069728;28;20043;-61
2022/03/23 07:34:42;;;;;;;5.88;5.38;;;;;;;;;;5070763;28;20048;-59
2022/03/23 07:37:08;;;;;;;5.70;5.25;;;;;;;;;;5073961;28;20455;-59
2022/03/23 07:39:33;;;;;;;9.48;5.63;;;;;;;;;;5067207;28;20065;-60
2022/03/23 07:42:00;;;;;;;8.18;7.00;;;;;;;;;;5071185;28;20092;-60
2022/03/23 07:44:25;;;;;;;6.60;5.85;;;;;;;;;;5070570;28;20339;-59
2022/03/23 07:46:52;;;;;;;7.65;6.88;;;;;;;;;;5070930;28;20101;-59
2022/03/23 07:49:17;;;;;;;6.72;6.13;;;;;;;;;;5069532;28;20559;-59
2022/03/23 07:51:43;;;;;;;6.43;5.93;;;;;;;;;;5067260;28;20032;-59
2022/03/23 07:54:08;;;;;;;6.53;6.03;;;;;;;;;;5072136;28;20028;-59
2022/03/23 07:56:34;;;;;;;5.50;5.00;;;;;;;;;;5072137;28;20059;-56
2022/03/23 07:59:00;;;;;;;6.93;6.35;;;;;;;;;;5072714;28;20036;-57
2022/03/23 08:01:25;;;;;;;8.20;7.25;;;;;;;;;;5076549;28;20032;-58
2022/03/23 08:03:51;;;;;;;7.10;6.45;;;;;;;;;;5072997;28;20047;-60
2022/03/23 08:06:16;;;;;;;5.88;5.38;;;;;;;;;;5076462;28;20028;-60
2022/03/23 08:08:42;;;;;;;6.13;5.63;;;;;;;;;;5071857;28;20028;-60
2022/03/23 08:11:07;;;;;;;6.00;5.43;;;;;;;;;;5075632;28;20024;-59
2022/03/23 08:13:33;;;;;;;8.63;5.93;;;;;;;;;;5074805;28;20129;-60
2022/03/23 08:16:00;;;;;;;8.43;6.13;;;;;;;;;;5074466;28;20384;-59
2022/03/23 08:18:27;;;;;;;6.60;6.00;;;;;;;;;;5075317;28;20056;-57
2022/03/23 08:20:52;;;;;;;6.72;6.13;;;;;;;;;;5076847;28;20032;-56
2022/03/23 08:23:19;;;;;;;5.72;5.25;;;;;;;;;;5073716;28;20036;-59
2022/03/23 08:25:44;;;;;;;7.40;6.65;;;;;;;;;;5072195;28;20023;-56
2022/03/23 08:28:12;;;;;;;5.95;5.35;;;;;;;;;;5073232;28;20343;-56
2022/03/23 08:30:37;;;;;;;6.47;5.88;;;;;;;;;;5073348;28;20036;-60
2022/03/23 08:33:03;;;;;;;6.53;5.95;;;;;;;;;;5072984;28;20165;-55
2022/03/23 08:35:30;;;;;;;7.43;6.72;;;;;;;;;;5072540;28;20024;-60
2022/03/23 08:37:55;;;;;;;8.15;7.18;;;;;;;;;;5075755;28;20044;-59
2022/03/23 08:40:21;;;;;;;7.75;6.60;;;;;;;;;;5075323;28;20039;-60
2022/03/23 08:42:47;;;;;;;6.72;6.20;;;;;;;;;;5073430;28;20020;-53
2022/03/23 08:45:13;;;;;;;7.47;6.88;;;;;;;;;;5071427;28;20101;-55
2022/03/23 08:47:39;;;;;;;6.80;6.20;;;;;;;;;;5073526;28;20036;-55
2022/03/23 08:50:07;;;;;;;8.15;7.35;;;;;;;;;;5072958;28;20512;-55
2022/03/23 08:52:34;;;;;;;8.38;7.70;;;;;;;;;;5071861;28;20380;-60
2022/03/23 08:55:01;;;;;;;8.27;7.55;;;;;;;;;;5072671;28;20181;-59
2022/03/23 08:57:26;;;;;;;7.30;6.60;;;;;;;;;;5074874;28;20092;-55
2022/03/23 08:59:51;;;;;;;7.25;6.65;;;;;;;;;;5073305;28;20654;-60
2022/03/23 09:02:17;;;;;;;8.10;7.30;;;;;;;;;;5075712;28;20091;-57
2022/03/23 09:04:42;;;;;;;7.38;6.78;;;;;;;;;;5076676;28;20028;-55
2022/03/23 09:07:08;;;;;;;6.78;6.25;;;;;;;;;;5074389;28;20036;-57
2022/03/23 09:09:33;;;;;;;9.38;7.90;;;;;;;;;;5074211;28;20362;-57
2022/03/23 09:11:59;;;;;;;7.10;6.50;;;;;;;;;;5073791;28;20135;-57
2022/03/23 09:14:24;;;;;;;8.50;6.25;;;;;;;;;;5071490;28;20025;-56
2022/03/23 09:16:49;;;;;;;7.65;6.95;;;;;;;;;;5073043;28;20047;-58
2022/03/23 09:19:19;;;;;;;7.57;6.88;;;;;;;;;;5071270;28;20037;-57
2022/03/23 09:21:49;;;;;;;6.55;5.97;;;;;;;;;;5069039;28;20035;-58
2022/03/23 09:24:15;;;;;;;7.40;6.70;;;;;;;;;;5070112;28;20032;-58
2022/03/23 09:26:41;;;;;;;6.38;5.78;;;;;;;;;;5070332;28;20017;-57
2022/03/23 09:29:10;;;;;;;7.88;7.22;;;;;;;;;;5073528;28;20035;-57
2022/03/23 09:31:36;;;;;;;7.65;6.95;;;;;;;;;;5072558;28;20082;-56
2022/03/23 09:34:02;;;;;;;9.40;8.55;;;;;;;;;;5073932;28;20129;-57
2022/03/23 09:39:13;;;;;;;7.22;6.60;;;;;;;;;;5077958;28;20158;-57
2022/03/23 09:41:39;;;;;;;8.27;7.43;;;;;;;;;;5072735;28;20141;-56
2022/03/23 09:44:05;;;;;;;9.52;8.07;;;;;;;;;;5071217;28;20088;-57
2022/03/23 09:46:32;;;;;;;8.73;8.00;;;;;;;;;;5073630;28;20088;-56
2022/03/23 09:48:57;;;;;;;7.93;7.28;;;;;;;;;;5070252;28;20369;-57
2022/03/23 09:51:24;;;;;;;8.60;7.90;;;;;;;;;;5075575;28;20033;-56
2022/03/23 09:53:50;;;;;;;8.10;7.50;;;;;;;;;;5072634;28;20056;-56
2022/03/23 09:56:18;;;;;;;7.53;6.93;;;;;;;;;;5073062;28;20033;-57
2022/03/23 09:58:43;;;;;;;8.18;7.45;;;;;;;;;;5070134;28;20091;-57
2022/03/23 10:01:40;;;;;;;8.48;7.80;;;;;;;;;;5070819;28;20112;-58
2022/03/23 10:04:12;;;;;;;10.32;8.85;;;;;;;;;;5058756;28;20483;-57
2022/03/23 10:07:03;;;;;;;16.30;8.07;;;;;;;;;;5071917;28;20394;-57
2022/03/23 10:10:06;;;;;;;8.73;7.90;;;;;;;;;;5069960;28;20358;-57
2022/03/23 10:13:29;;;;;;;9.48;7.95;;;;;;;;;;5071769;28;20032;-58
2022/03/23 10:16:31;;;;;;;8.23;7.53;;;;;;;;;;5067552;28;20047;-57
2022/03/23 10:18:58;;;;;;;8.57;7.88;;;;;;;;;;5071224;28;20469;-58
2022/03/23 10:21:26;;;;;;;8.23;7.53;;;;;;;;;;5069947;28;20036;-55
2022/03/23 10:23:58;;;;;;;8.60;8.00;;;;;;;;;;5074768;28;20411;-58
2022/03/23 10:26:24;;;;;;;9.15;8.25;;;;;;;;;;5070779;28;20390;-60
2022/03/23 10:28:49;;;;;;;8.70;8.00;;;;;;;;;;5069744;28;20035;-59
2022/03/23 10:31:21;;;;;;;9.85;8.88;;;;;;;;;;5069592;28;20135;-60
2022/03/23 10:34:08;;;;;;;8.45;7.80;;;;;;;;;;5068705;28;20024;-60
2022/03/23 10:36:40;;;;;;;9.20;8.48;;;;;;;;;;5069793;28;20043;-60
2022/03/23 10:39:10;;;;;;;9.98;9.07;;;;;;;;;;5069917;28;20045;-60
2022/03/23 10:41:36;;;;;;;8.35;7.75;;;;;;;;;;5070261;28;20040;-60
2022/03/23 10:44:02;;;;;;;8.63;7.93;;;;;;;;;;5071011;28;20050;-60
2022/03/23 10:46:27;;;;;;;8.20;7.60;;;;;;;;;;5067641;28;20036;-59
2022/03/23 10:49:02;;;;;;;8.35;7.75;;;;;;;;;;5068924;28;20429;-59
2022/03/23 10:51:29;;;;;;;9.00;8.30;;;;;;;;;;5071671;28;20162;-60
2022/03/23 10:53:56;;;;;;;8.95;8.25;;;;;;;;;;5069960;28;20025;-59
2022/03/23 10:56:34;;;;;;;8.30;7.60;;;;;;;;;;5069929;28;20138;-60
2022/03/23 10:59:23;;;;;;;14.75;8.30;;;;;;;;;;5070491;28;20513;-60
2022/03/23 11:02:01;;;;;;;8.15;7.55;;;;;;;;;;5071649;28;20028;-60
2022/03/23 11:04:57;;;;;;;8.50;7.80;;;;;;;;;;5072141;28;20028;-60
2022/03/23 11:07:29;;;;;;;9.35;8.50;;;;;;;;;;5068579;28;20024;-60
2022/03/23 11:18:11;;;;;;;9.48;8.57;;;;;;;;;;5071952;28;20028;-60
2022/03/23 11:20:40;;;;;;;9.15;8.55;;;;;;;;;;5068785;28;20343;-59
2022/03/23 11:23:30;;;;;;;10.18;9.38;;;;;;;;;;5071443;28;20417;-60
2022/03/23 11:26:00;;;;;;;15.35;14.40;;;;;;;;;;5069104;28;20067;-60
2022/03/23 11:28:28;;;;;;;14.20;13.20;;;;;;;;;;5071599;28;20036;-60
2022/03/23 11:30:55;;;;;;;15.43;14.43;;;;;;;;;;5070029;28;20135;-59
2022/03/23 11:33:23;;;;;;;11.57;10.88;;;;;;;;;;5073357;28;20020;-59
2022/03/23 11:35:50;;;;;;;11.90;10.90;;;;;;;;;;5073570;28;20097;-60
2022/03/23 11:38:18;;;;;;;12.20;11.40;;;;;;;;;;5074121;28;20032;-59
2022/03/23 11:40:45;;;;;;;11.98;11.18;;;;;;;;;;5074467;28;20047;-60
2022/03/23 11:43:13;;;;;;;13.85;13.05;;;;;;;;;;5076682;28;20024;-59
2022/03/23 11:45:40;;;;;;;15.65;14.65;;;;;;;;;;5073967;28;20036;-59
2022/03/23 11:48:20;;;;;;;15.10;14.15;;;;;;;;;;5073939;28;20025;-59
2022/03/23 11:50:58;;;;;;;15.88;14.85;;;;;;;;;;5073854;28;20068;-59
2022/03/23 11:53:35;;;;;;;18.05;16.75;;;;;;;;;;5075461;28;20063;-59
2022/03/23 11:56:02;;;;;;;22.52;21.13;;;;;;;;;;5073616;28;20119;-59
2022/03/23 11:58:39;;;;;;;24.08;22.55;;;;;;;;;;5073869;28;20037;-59
2022/03/23 12:01:14;;;;;;;19.52;18.38;;;;;;;;;;5073592;28;20625;-59
2022/03/23 12:04:00;;;;;;;19.75;18.55;;;;;;;;;;5070497;28;20173;-59
2022/03/23 12:06:41;;;;;;;22.40;21.10;;;;;;;;;;5067769;28;20185;-59
2022/03/23 12:09:08;;;;;;;22.17;20.88;;;;;;;;;;5067201;28;20099;-59
2022/03/23 12:11:46;;;;;;;24.48;23.08;;;;;;;;;;5067526;28;20036;-59
2022/03/23 12:14:36;;;;;;;25.10;23.63;;;;;;;;;;5069150;28;20100;-59
2022/03/23 12:17:15;;;;;;;19.75;18.25;;;;;;;;;;5069009;28;20050;-59
2022/03/23 12:20:03;;;;;;;21.38;20.08;;;;;;;;;;5069996;28;20474;-58
2022/03/23 12:22:31;;;;;;;21.08;19.88;;;;;;;;;;5065320;28;20060;-58
2022/03/23 12:25:08;;;;;;;22.02;20.73;;;;;;;;;;5069387;28;20028;-58
2022/03/23 12:27:48;;;;;;;24.00;22.40;;;;;;;;;;5068360;28;20090;-58
2022/03/23 12:30:18;;;;;;;20.85;19.63;;;;;;;;;;5065795;28;20036;-58
2022/03/23 12:32:44;;;;;;;20.58;19.42;;;;;;;;;;5067064;28;20618;-59
2022/03/23 12:35:09;;;;;;;24.77;23.38;;;;;;;;;;5066848;28;20036;-59
2022/03/23 12:37:40;;;;;;;25.85;23.70;;;;;;;;;;5068976;28;20043;-59
2022/03/23 12:40:09;;;;;;;21.23;19.92;;;;;;;;;;5069622;28;20032;-59
2022/03/23 12:42:43;;;;;;;23.95;22.48;;;;;;;;;;5065978;28;20036;-59
2022/03/23 12:45:28;;;;;;;25.65;24.23;;;;;;;;;;5067700;28;20028;-59
2022/03/23 12:47:55;;;;;;;21.38;20.17;;;;;;;;;;5066678;28;20076;-58
2022/03/23 12:59:21;;;;;;;19.30;18.15;;;;;;;;;;5061479;28;20040;-59
2022/03/23 13:01:54;;;;;;;21.08;19.88;;;;;;;;;;5061522;28;20043;-58
2022/03/23 13:04:44;;;;;;;22.98;21.48;;;;;;;;;;5059421;28;20506;-58
2022/03/23 13:07:28;;;;;;;20.95;19.77;;;;;;;;;;5060463;28;20062;-58
2022/03/23 13:10:04;;;;;;;22.80;21.45;;;;;;;;;;5060651;28;20519;-58
2022/03/23 13:12:31;;;;;;;21.05;19.83;;;;;;;;;;5062203;28;20151;-56
2022/03/23 13:14:57;;;;;;;22.48;21.27;;;;;;;;;;5061849;28;20142;-57
2022/03/23 13:17:23;;;;;;;20.75;19.55;;;;;;;;;;5060843;28;20066;-56
2022/03/23 13:19:56;;;;;;;27.27;25.55;;;;;;;;;;5063465;28;20528;-58
2022/03/23 13:22:36;;;;;;;23.33;21.92;;;;;;;;;;5061956;28;20071;-57
2022/03/23 13:25:06;;;;;;;20.63;19.35;;;;;;;;;;5062160;28;20041;-57
2022/03/23 13:27:31;;;;;;;22.67;21.17;;;;;;;;;;5062917;28;20579;-57
2022/03/23 13:30:01;;;;;;;23.35;22.02;;;;;;;;;;5058840;28;20037;-57
2022/03/23 13:32:31;;;;;;;25.37;23.87;;;;;;;;;;5063086;28;20055;-56
2022/03/23 13:34:58;;;;;;;23.55;22.15;;;;;;;;;;5064487;28;20278;-57
2022/03/23 13:37:23;;;;;;;22.50;21.13;;;;;;;;;;5064127;28;20081;-56
2022/03/23 13:39:48;;;;;;;22.90;21.60;;;;;;;;;;5057686;28;20044;-56
2022/03/23 13:45:06;;;;;;;21.05;19.73;;;;;;;;;;5061029;28;20045;-56
2022/03/23 13:47:38;;;;;;;25.15;23.63;;;;;;;;;;5061551;28;20345;-56
2022/03/23 13:50:07;;;;;;;25.10;23.13;;;;;;;;;;5060574;28;20052;-56
2022/03/23 13:52:32;;;;;;;21.92;20.70;;;;;;;;;;5062113;28;20139;-56
2022/03/23 13:54:59;;;;;;;24.48;23.08;;;;;;;;;;5061647;28;20127;-55
2022/03/23 13:57:26;;;;;;;21.55;20.27;;;;;;;;;;5059846;28;20501;-54
2022/03/23 13:59:52;;;;;;;22.80;21.48;;;;;;;;;;5064925;28;20043;-54
2022/03/23 14:02:23;;;;;;;24.35;22.95;;;;;;;;;;5062912;28;20032;-56
2022/03/23 14:04:48;;;;;;;25.25;23.45;;;;;;;;;;5064382;28;20048;-57
2022/03/23 14:07:13;;;;;;;22.00;20.63;;;;;;;;;;5065593;28;20485;-57
2022/03/23 14:09:39;;;;;;;26.10;24.60;;;;;;;;;;5064594;28;20039;-57
2022/03/23 14:12:12;;;;;;;24.67;23.17;;;;;;;;;;5065609;28;20040;-58
2022/03/23 14:14:40;;;;;;;26.88;25.33;;;;;;;;;;5064707;28;20495;-57
2022/03/23 14:17:23;;;;;;;24.50;23.00;;;;;;;;;;5064826;28;20047;-56
2022/03/23 14:19:50;;;;;;;25.00;23.58;;;;;;;;;;5074957;28;20487;-57
2022/03/23 14:22:19;;;;;;;25.83;24.33;;;;;;;;;;5066618;28;20515;-57
2022/03/23 14:24:45;;;;;;;29.67;27.98;;;;;;;;;;5072968;28;20119;-57
2022/03/23 14:27:16;;;;;;;29.15;27.25;;;;;;;;;;5074686;28;20020;-58
2022/03/23 14:30:05;;;;;;;29.75;27.77;;;;;;;;;;5070471;28;20024;-57
2022/03/23 14:32:34;;;;;;;29.88;28.17;;;;;;;;;;5070469;28;20119;-58
2022/03/23 14:35:03;;;;;;;29.45;27.83;;;;;;;;;;5071321;28;20032;-57
2022/03/23 14:37:36;;;;;;;32.38;30.13;;;;;;;;;;5072328;28;20834;-58
2022/03/23 14:40:32;;;;;;;30.48;28.77;;;;;;;;;;5071910;28;20141;-57
2022/03/23 14:42:59;;;;;;;26.17;24.77;;;;;;;;;;5065444;28;20449;-58
2022/03/23 14:45:34;;;;;;;27.80;26.10;;;;;;;;;;5070767;28;20525;-58
2022/03/23 14:48:14;;;;;;;26.50;25.02;;;;;;;;;;5069227;28;20121;-57
2022/03/23 14:50:40;;;;;;;27.30;25.75;;;;;;;;;;5073698;28;20328;-58
2022/03/23 14:53:05;;;;;;;29.02;27.33;;;;;;;;;;5068904;28;20032;-57
2022/03/23 14:55:31;;;;;;;27.98;26.42;;;;;;;;;;5073277;28;20039;-58
2022/03/23 14:57:56;;;;;;;32.47;30.27;;;;;;;;;;5071791;28;20048;-57
2022/03/23 15:00:21;;;;;;;27.67;25.63;;;;;;;;;;5067924;28;20040;-58
2022/03/23 15:02:47;;;;;;;28.67;27.08;;;;;;;;;;5069956;28;20115;-57
2022/03/23 15:13:39;;;;;;;29.92;28.02;;;;;;;;;;5074166;28;20048;-58
2022/03/23 15:16:04;;;;;;;29.73;27.92;;;;;;;;;;5073572;28;20087;-56
2022/03/23 15:18:30;;;;;;;30.05;28.27;;;;;;;;;;5075275;28;20197;-56
2022/03/23 15:20:55;;;;;;;25.98;24.35;;;;;;;;;;5073427;28;20028;-54
2022/03/23 15:23:20;;;;;;;26.48;24.88;;;;;;;;;;5074835;28;20528;-55